createdAt,value
2018-12-09T00:02:01.032Z,85.70
2018-12-09T00:04:31.864Z,87.80
2018-12-09T00:07:03.688Z,87.60
2018-12-09T00:09:32.611Z,87.10
2018-12-09T00:12:01.432Z,87.00
2018-12-09T00:14:30.291Z,87.10
2018-12-09T00:16:59.006Z,87.40
2018-12-09T00:19:27.721Z,87.40
2018-12-09T00:21:56.732Z,87.00
2018-12-09T00:24:25.584Z,89.10
2018-12-09T00:26:54.449Z,89.80
2018-12-09T00:29:23.265Z,88.90
2018-12-09T00:31:52.109Z,89.50
2018-12-09T00:34:20.988Z,89.10
2018-12-09T00:36:49.885Z,88.60
2018-12-09T00:39:18.679Z,88.30
2018-12-09T00:41:47.465Z,88.90
2018-12-09T00:44:16.190Z,88.90
2018-12-09T00:46:45.093Z,88.70
2018-12-09T00:49:13.957Z,88.40
2018-12-09T00:51:42.855Z,88.00
2018-12-09T00:54:11.724Z,88.40
2018-12-09T00:56:40.677Z,88.70
2018-12-09T00:59:09.638Z,88.50
2018-12-09T01:01:38.535Z,89.70
2018-12-09T01:04:07.481Z,89.10
2018-12-09T01:06:36.446Z,89.70
2018-12-09T01:09:06.126Z,89.00
2018-12-09T01:11:36.780Z,89.90
2018-12-09T01:14:05.700Z,89.70
2018-12-09T01:16:34.512Z,89.90
2018-12-09T01:19:03.697Z,89.30
2018-12-09T01:21:32.565Z,88.80
2018-12-09T01:24:01.432Z,89.00
2018-12-09T01:26:30.568Z,89.30
2018-12-09T01:28:59.381Z,88.50
2018-12-09T01:31:28.387Z,89.20
2018-12-09T01:33:57.165Z,89.90
2018-12-09T01:36:26.161Z,90.10
2018-12-09T01:38:54.947Z,90.10
2018-12-09T01:41:23.872Z,90.40
2018-12-09T01:43:52.812Z,90.30
2018-12-09T01:46:21.648Z,90.50
2018-12-09T01:48:50.608Z,90.20
2018-12-09T01:51:19.560Z,90.10
2018-12-09T01:54:19.895Z,90.00
2018-12-09T01:56:49.033Z,90.00
2018-12-09T01:59:17.855Z,89.80
2018-12-09T02:01:46.712Z,90.00
2018-12-09T02:04:16.204Z,90.00
2018-12-09T02:06:45.026Z,90.00
2018-12-09T02:09:13.894Z,90.20
2018-12-09T02:11:42.941Z,90.20
2018-12-09T02:14:11.772Z,90.30
2018-12-09T02:16:40.585Z,90.20
2018-12-09T02:19:18.426Z,90.30
2018-12-09T02:21:48.546Z,90.60
2018-12-09T02:24:17.466Z,90.10
2018-12-09T02:26:46.467Z,90.10
2018-12-09T02:29:15.377Z,90.10
2018-12-09T02:31:44.326Z,90.10
2018-12-09T02:34:13.223Z,90.10
2018-12-09T02:36:42.127Z,90.20
2018-12-09T02:39:11.833Z,90.00
2018-12-09T02:41:40.770Z,90.10
2018-12-09T02:44:10.371Z,90.20
2018-12-09T02:46:39.540Z,90.20
2018-12-09T02:49:08.246Z,90.00
2018-12-09T02:51:37.152Z,90.10
2018-12-09T02:54:06.011Z,90.20
2018-12-09T02:56:34.904Z,90.20
2018-12-09T02:59:03.773Z,90.10
2018-12-09T03:01:32.595Z,90.00
2018-12-09T03:04:01.455Z,89.80
2018-12-09T03:06:30.298Z,89.50
2018-12-09T03:08:59.144Z,89.30
2018-12-09T03:11:28.106Z,89.80
2018-12-09T03:13:56.961Z,89.70
2018-12-09T03:16:25.809Z,89.40
2018-12-09T03:18:55.025Z,89.70
2018-12-09T03:21:23.977Z,89.80
2018-12-09T03:23:59.177Z,89.70
2018-12-09T03:26:28.164Z,89.70
2018-12-09T03:28:57.332Z,89.60
2018-12-09T03:31:26.242Z,89.50
2018-12-09T03:33:55.089Z,89.10
2018-12-09T03:36:23.889Z,89.50
2018-12-09T03:38:52.651Z,88.40
2018-12-09T03:41:21.562Z,88.70
2018-12-09T03:43:50.417Z,88.80
2018-12-09T03:46:19.368Z,88.70
2018-12-09T03:48:48.140Z,88.60
2018-12-09T03:51:17.278Z,88.70
2018-12-09T03:53:46.117Z,87.60
2018-12-09T03:56:14.959Z,87.80
2018-12-09T03:58:43.792Z,87.60
2018-12-09T04:01:12.689Z,87.60
2018-12-09T04:03:41.553Z,87.20
2018-12-09T04:06:10.830Z,87.20
2018-12-09T04:08:40.675Z,86.80
2018-12-09T04:11:09.374Z,86.90
2018-12-09T04:13:38.207Z,86.40
2018-12-09T04:16:06.973Z,86.60
2018-12-09T04:18:37.750Z,86.50
2018-12-09T04:21:06.500Z,86.00
2018-12-09T04:23:35.288Z,86.90
2018-12-09T04:26:04.224Z,86.20
2018-12-09T04:28:32.997Z,86.30
2018-12-09T04:31:01.811Z,86.30
2018-12-09T04:33:30.518Z,86.00
2018-12-09T04:35:59.455Z,86.20
2018-12-09T04:38:28.222Z,86.20
2018-12-09T04:40:57.148Z,87.10
2018-12-09T04:43:25.932Z,86.10
2018-12-09T04:45:54.729Z,85.90
2018-12-09T04:48:23.630Z,86.10
2018-12-09T04:50:52.456Z,86.20
2018-12-09T04:53:21.217Z,86.60
2018-12-09T04:55:50.200Z,86.40
2018-12-09T04:58:19.080Z,87.00
2018-12-09T05:00:55.074Z,86.80
2018-12-09T05:03:23.933Z,87.20
2018-12-09T05:05:52.699Z,88.30
2018-12-09T05:08:21.512Z,87.70
2018-12-09T05:10:50.396Z,88.00
2018-12-09T05:13:19.260Z,87.90
2018-12-09T05:15:48.114Z,87.50
2018-12-09T05:18:16.896Z,87.50
2018-12-09T05:20:47.043Z,87.60
2018-12-09T05:23:15.854Z,87.70
2018-12-09T05:25:44.633Z,87.80
2018-12-09T05:28:13.548Z,87.90
2018-12-09T05:30:42.355Z,88.00
2018-12-09T05:33:11.547Z,87.90
2018-12-09T05:35:40.289Z,88.00
2018-12-09T05:38:09.160Z,87.70
2018-12-09T05:40:38.115Z,87.60
2018-12-09T05:43:06.926Z,87.70
2018-12-09T05:45:35.612Z,87.60
2018-12-09T05:48:04.541Z,87.70
2018-12-09T05:50:33.257Z,87.60
2018-12-09T05:53:01.985Z,87.60
2018-12-09T05:55:31.056Z,87.50
2018-12-09T05:57:59.843Z,87.40
2018-12-09T06:00:28.566Z,87.50
2018-12-09T06:02:58.431Z,87.80
2018-12-09T06:05:27.313Z,87.70
2018-12-09T06:07:56.054Z,87.70
2018-12-09T06:10:24.805Z,87.70
2018-12-09T06:12:53.609Z,87.90
2018-12-09T06:15:22.513Z,88.10
2018-12-09T06:17:51.250Z,88.00
2018-12-09T06:20:20.150Z,88.20
2018-12-09T06:22:49.058Z,88.40
2018-12-09T06:25:17.954Z,88.50
2018-12-09T06:27:47.132Z,88.50
2018-12-09T06:30:16.348Z,88.50
2018-12-09T06:32:45.237Z,88.50
2018-12-09T06:35:14.275Z,88.70
2018-12-09T06:37:43.301Z,88.70
2018-12-09T06:40:12.090Z,88.70
2018-12-09T06:42:41.785Z,88.90
2018-12-09T06:45:10.583Z,89.30
2018-12-09T06:47:39.454Z,89.60
2018-12-09T06:50:11.021Z,89.50
2018-12-09T06:52:40.183Z,89.20
2018-12-09T06:55:09.413Z,89.50
2018-12-09T06:57:38.098Z,89.50
2018-12-09T07:00:08.534Z,89.60
2018-12-09T07:02:40.518Z,89.50
2018-12-09T07:05:10.056Z,90.00
2018-12-09T07:07:38.863Z,89.60
2018-12-09T07:10:09.336Z,89.80
2018-12-09T07:12:38.528Z,90.00
2018-12-09T07:15:07.517Z,89.90
2018-12-09T07:17:37.426Z,90.00
2018-12-09T07:20:07.660Z,90.00
2018-12-09T07:22:36.372Z,90.40
2018-12-09T07:25:05.672Z,90.00
2018-12-09T07:27:34.909Z,89.90
2018-12-09T07:30:03.850Z,89.90
2018-12-09T07:32:32.769Z,89.90
2018-12-09T07:35:01.564Z,90.00
2018-12-09T07:37:30.602Z,89.60
2018-12-09T07:39:59.651Z,89.50
2018-12-09T07:42:28.472Z,89.70
2018-12-09T07:44:57.228Z,89.70
2018-12-09T07:47:26.080Z,89.60
2018-12-09T07:49:54.850Z,89.50
2018-12-09T07:52:23.778Z,89.10
2018-12-09T07:54:52.563Z,89.10
2018-12-09T07:57:21.230Z,89.10
2018-12-09T07:59:49.966Z,89.20
2018-12-09T08:02:18.766Z,89.10
2018-12-09T08:04:47.532Z,89.30
2018-12-09T08:07:16.486Z,89.30
2018-12-09T08:09:45.286Z,89.00
2018-12-09T08:12:15.074Z,89.00
2018-12-09T08:14:44.867Z,89.10
2018-12-09T08:17:13.620Z,89.10
2018-12-09T08:19:42.416Z,89.20
2018-12-09T08:22:11.156Z,89.00
2018-12-09T08:24:39.985Z,88.70
2018-12-09T08:27:08.778Z,89.10
2018-12-09T08:29:37.605Z,88.80
2018-12-09T08:32:06.329Z,89.10
2018-12-09T08:34:35.170Z,89.10
2018-12-09T08:37:03.933Z,88.90
2018-12-09T08:39:32.864Z,88.80
2018-12-09T08:42:01.590Z,88.60
2018-12-09T08:44:31.406Z,88.50
2018-12-09T08:47:00.213Z,87.90
2018-12-09T08:49:29.981Z,88.00
2018-12-09T08:51:58.788Z,87.90
2018-12-09T08:54:27.617Z,88.10
2018-12-09T08:56:56.441Z,87.30
2018-12-09T08:59:25.189Z,87.10
2018-12-09T09:01:53.964Z,87.60
2018-12-09T09:04:22.826Z,87.60
2018-12-09T09:06:51.542Z,87.90
2018-12-09T09:09:20.245Z,88.30
2018-12-09T09:11:49.041Z,88.10
2018-12-09T09:14:18.917Z,88.20
2018-12-09T09:16:47.773Z,88.10
2018-12-09T09:19:16.517Z,86.80
2018-12-09T09:21:45.283Z,86.60
2018-12-09T09:24:14.138Z,85.50
2018-12-09T09:26:42.991Z,85.60
2018-12-09T09:29:11.736Z,86.00
2018-12-09T09:31:40.629Z,86.80
2018-12-09T09:34:09.372Z,85.70
2018-12-09T09:36:38.192Z,86.00
2018-12-09T09:39:07.082Z,86.00
2018-12-09T09:41:37.150Z,85.70
2018-12-09T09:44:06.131Z,85.70
2018-12-09T09:46:35.608Z,85.40
2018-12-09T09:49:04.556Z,85.10
2018-12-09T09:51:33.316Z,84.60
2018-12-09T09:54:02.163Z,85.20
2018-12-09T09:56:30.996Z,84.80
2018-12-09T09:58:59.691Z,84.30
2018-12-09T10:01:28.504Z,83.50
2018-12-09T10:03:57.503Z,84.60
2018-12-09T10:06:26.545Z,85.00
2018-12-09T10:08:55.301Z,85.10
2018-12-09T10:11:24.145Z,85.30
2018-12-09T10:13:52.980Z,85.80
2018-12-09T10:16:21.661Z,86.00
2018-12-09T10:18:50.393Z,86.30
2018-12-09T10:21:19.195Z,86.60
2018-12-09T10:23:47.971Z,86.20
2018-12-09T10:26:16.812Z,86.50
2018-12-09T10:28:45.568Z,87.10
2018-12-09T10:31:15.374Z,87.70
2018-12-09T10:33:44.197Z,87.60
2018-12-09T10:36:13.593Z,87.70
2018-12-09T10:38:42.324Z,88.30
2018-12-09T10:41:11.098Z,87.10
2018-12-09T10:43:39.796Z,86.60
2018-12-09T10:46:08.691Z,86.60
2018-12-09T10:48:37.511Z,86.00
2018-12-09T10:51:06.300Z,86.60
2018-12-09T10:53:35.045Z,86.50
2018-12-09T10:56:03.903Z,86.70
2018-12-09T10:58:32.667Z,86.80
2018-12-09T11:01:06.397Z,87.10
2018-12-09T11:03:35.255Z,87.50
2018-12-09T11:06:04.113Z,87.60
2018-12-09T11:08:32.883Z,87.40
2018-12-09T11:11:01.706Z,87.30
2018-12-09T11:13:30.472Z,87.20
2018-12-09T11:15:59.172Z,87.30
2018-12-09T11:18:27.940Z,87.20
2018-12-09T11:20:56.780Z,87.30
2018-12-09T11:23:26.032Z,87.50
2018-12-09T11:25:54.768Z,88.10
2018-12-09T11:28:23.476Z,87.80
2018-12-09T11:30:53.204Z,87.70
2018-12-09T11:33:22.062Z,88.00
2018-12-09T11:35:50.867Z,88.30
2018-12-09T11:38:19.592Z,87.90
2018-12-09T11:40:48.312Z,88.00
2018-12-09T11:43:17.323Z,87.60
2018-12-09T11:45:46.148Z,87.50
2018-12-09T11:48:14.982Z,87.40
2018-12-09T11:50:43.968Z,87.60
2018-12-09T11:53:12.848Z,87.50
2018-12-09T11:55:41.804Z,87.60
2018-12-09T11:58:10.612Z,87.50
2018-12-09T12:00:39.493Z,88.00
2018-12-09T12:03:08.233Z,86.80
2018-12-09T12:05:37.168Z,87.20
2018-12-09T12:08:05.652Z,86.70
2018-12-09T12:10:34.597Z,85.50
2018-12-09T12:13:03.387Z,86.20
2018-12-09T12:15:32.274Z,85.40
2018-12-09T12:18:01.504Z,86.00
2018-12-09T12:20:30.355Z,85.50
2018-12-09T12:22:59.152Z,85.80
2018-12-09T12:25:27.903Z,86.20
2018-12-09T12:27:56.673Z,85.40
2018-12-09T12:30:26.296Z,85.40
2018-12-09T12:32:54.996Z,85.40
2018-12-09T12:35:23.779Z,85.50
2018-12-09T12:37:52.649Z,85.60
2018-12-09T12:40:21.512Z,85.30
2018-12-09T12:42:50.580Z,85.30
2018-12-09T12:45:19.403Z,85.60
2018-12-09T12:47:50.207Z,85.40
2018-12-09T12:50:19.019Z,85.50
2018-12-09T12:52:48.884Z,85.80
2018-12-09T12:55:17.595Z,87.00
2018-12-09T12:57:46.407Z,87.30
2018-12-09T13:00:17.231Z,87.90
2018-12-09T13:02:46.222Z,87.80
2018-12-09T13:05:15.113Z,87.60
2018-12-09T13:07:44.439Z,88.20
2018-12-09T13:10:13.313Z,88.60
2018-12-09T13:12:42.124Z,89.30
2018-12-09T13:15:10.927Z,83.50
2018-12-09T13:17:39.639Z,85.80
2018-12-09T13:20:08.862Z,87.10
2018-12-09T13:22:38.086Z,86.60
2018-12-09T13:25:08.141Z,87.40
2018-12-09T13:27:36.972Z,88.70
2018-12-09T13:30:06.713Z,89.80
2018-12-09T13:32:35.577Z,89.70
2018-12-09T13:35:04.444Z,89.00
2018-12-09T13:37:34.255Z,89.10
2018-12-09T13:40:03.085Z,89.20
2018-12-09T13:42:31.983Z,87.90
2018-12-09T13:45:00.761Z,87.90
2018-12-09T13:47:30.660Z,88.10
2018-12-09T13:49:59.452Z,87.80
2018-12-09T13:52:28.469Z,87.20
2018-12-09T13:54:57.321Z,86.60
2018-12-09T13:57:26.231Z,86.90
2018-12-09T13:59:54.913Z,85.70
2018-12-09T14:02:23.737Z,86.00
2018-12-09T14:04:53.583Z,86.70
2018-12-09T14:07:22.547Z,86.90
2018-12-09T14:09:51.581Z,87.30
2018-12-09T14:12:20.407Z,87.00
2018-12-09T14:14:49.224Z,85.30
2018-12-09T14:17:18.039Z,85.20
2018-12-09T14:19:46.816Z,84.50
2018-12-09T14:22:15.783Z,85.20
2018-12-09T14:24:44.829Z,85.70
2018-12-09T14:27:13.629Z,86.50
2018-12-09T14:29:42.517Z,86.60
2018-12-09T14:32:11.608Z,86.80
2018-12-09T14:34:40.359Z,87.00
2018-12-09T14:37:09.200Z,87.20
2018-12-09T14:39:37.971Z,87.20
2018-12-09T14:42:06.821Z,86.70
2018-12-09T14:44:35.837Z,87.40
2018-12-09T14:47:04.642Z,86.90
2018-12-09T14:49:33.376Z,86.40
2018-12-09T14:52:02.268Z,86.50
2018-12-09T14:54:30.977Z,86.40
2018-12-09T14:56:59.820Z,86.50
2018-12-09T14:59:28.667Z,86.40
2018-12-09T15:01:58.480Z,86.40
2018-12-09T15:04:29.143Z,85.80
2018-12-09T15:06:57.999Z,85.60
2018-12-09T15:09:26.841Z,85.50
2018-12-09T15:11:55.655Z,85.20
2018-12-09T15:14:24.446Z,85.60
2018-12-09T15:16:53.192Z,84.40
2018-12-09T15:19:22.038Z,84.80
2018-12-09T15:21:50.901Z,83.90
2018-12-09T15:24:19.781Z,85.00
2018-12-09T15:26:50.480Z,85.30
2018-12-09T15:29:19.304Z,85.50
2018-12-09T15:31:48.133Z,85.80
2018-12-09T15:34:16.908Z,85.90
2018-12-09T15:36:45.762Z,85.70
2018-12-09T15:39:15.305Z,85.60
2018-12-09T15:41:57.381Z,85.10
2018-12-09T15:44:26.267Z,84.90
2018-12-09T15:46:55.005Z,84.50
2018-12-09T15:49:23.888Z,84.60
2018-12-09T15:51:52.681Z,84.10
2018-12-09T15:54:21.719Z,84.00
2018-12-09T15:56:50.622Z,83.80
2018-12-09T15:59:20.862Z,83.40
2018-12-09T16:01:49.853Z,83.50
2018-12-09T16:04:18.568Z,83.60
2018-12-09T16:06:47.353Z,83.10
2018-12-09T16:09:16.121Z,82.80
2018-12-09T16:11:45.445Z,82.80
2018-12-09T16:14:15.502Z,82.80
2018-12-09T16:16:44.285Z,82.80
2018-12-09T16:19:13.044Z,82.40
2018-12-09T16:21:41.792Z,82.40
2018-12-09T16:24:10.588Z,82.30
2018-12-09T16:26:39.352Z,82.20
2018-12-09T16:29:08.192Z,82.20
2018-12-09T16:31:36.997Z,81.80
2018-12-09T16:34:06.810Z,81.90
2018-12-09T16:36:35.534Z,81.00
2018-12-09T16:39:06.877Z,81.80
2018-12-09T16:41:35.665Z,81.40
2018-12-09T16:44:04.631Z,81.30
2018-12-09T16:46:33.527Z,81.30
2018-12-09T16:49:02.283Z,81.50
2018-12-09T16:51:31.037Z,81.40
2018-12-09T16:53:59.781Z,81.80
2018-12-09T16:56:28.501Z,81.60
2018-12-09T16:58:57.219Z,81.00
2018-12-09T17:01:26.109Z,81.20
2018-12-09T17:03:54.836Z,81.00
2018-12-09T17:06:23.632Z,80.70
2018-12-09T17:08:52.387Z,80.40
2018-12-09T17:11:21.089Z,80.00
2018-12-09T17:13:49.870Z,79.90
2018-12-09T17:16:18.729Z,80.60
2018-12-09T17:18:47.556Z,81.50
2018-12-09T17:21:16.289Z,81.30
2018-12-09T17:23:46.087Z,81.50
2018-12-09T17:26:15.829Z,81.50
2018-12-09T17:28:44.571Z,81.10
2018-12-09T17:31:13.397Z,80.80
2018-12-09T17:33:42.189Z,80.70
2018-12-09T17:36:10.952Z,80.40
2018-12-09T17:38:39.687Z,80.80
2018-12-09T17:41:08.547Z,80.60
2018-12-09T17:43:37.283Z,80.80
2018-12-09T17:46:06.073Z,80.50
2018-12-09T17:48:34.905Z,80.70
2018-12-09T17:51:03.721Z,80.70
2018-12-09T17:53:32.514Z,80.60
2018-12-09T17:56:01.353Z,80.20
2018-12-09T17:58:30.123Z,80.00
2018-12-09T18:00:58.899Z,79.10
2018-12-09T18:03:27.637Z,79.10
2018-12-09T18:05:56.418Z,79.00
2018-12-09T18:08:25.469Z,79.20
2018-12-09T18:10:54.248Z,78.40
2018-12-09T18:13:23.284Z,77.40
2018-12-09T18:16:01.732Z,77.60
2018-12-09T18:18:30.503Z,77.00
2018-12-09T18:20:59.236Z,77.40
2018-12-09T18:23:28.991Z,77.60
2018-12-09T18:25:57.709Z,78.10
2018-12-09T18:28:26.512Z,78.10
2018-12-09T18:30:55.305Z,78.40
2018-12-09T18:33:24.143Z,79.20
2018-12-09T18:35:52.980Z,79.90
2018-12-09T18:38:21.900Z,80.20
2018-12-09T18:40:50.792Z,80.70
2018-12-09T18:43:19.623Z,80.30
2018-12-09T18:45:48.454Z,80.80
2018-12-09T18:48:17.248Z,80.70
2018-12-09T18:50:46.505Z,81.20
2018-12-09T18:53:15.308Z,81.70
2018-12-09T18:55:44.122Z,82.60
2018-12-09T18:58:12.944Z,81.80
2018-12-09T19:00:41.795Z,81.60
2018-12-09T19:03:11.166Z,81.50
2018-12-09T19:05:40.111Z,81.60
2018-12-09T19:08:08.946Z,81.30
2018-12-09T19:10:37.767Z,81.00
2018-12-09T19:13:06.467Z,80.90
2018-12-09T19:15:35.264Z,80.70
2018-12-09T19:18:04.137Z,80.20
2018-12-09T19:20:32.977Z,80.00
2018-12-09T19:23:01.687Z,80.10
2018-12-09T19:25:30.489Z,79.60
2018-12-09T19:27:59.263Z,79.60
2018-12-09T19:30:28.058Z,79.50
2018-12-09T19:32:56.888Z,79.20
2018-12-09T19:35:25.788Z,79.20
2018-12-09T19:37:54.544Z,78.90
2018-12-09T19:40:23.341Z,78.90
2018-12-09T19:42:52.193Z,79.20
2018-12-09T19:45:21.009Z,79.50
2018-12-09T19:47:49.861Z,79.60
2018-12-09T19:50:18.977Z,80.60
2018-12-09T19:52:47.783Z,79.70
2018-12-09T19:55:16.907Z,80.10
2018-12-09T19:57:45.667Z,80.00
2018-12-09T20:00:14.480Z,79.40
2018-12-09T20:02:43.244Z,80.10
2018-12-09T20:05:12.058Z,81.60
2018-12-09T20:07:41.391Z,80.60
2018-12-09T20:10:10.218Z,81.40
2018-12-09T20:12:39.072Z,81.00
2018-12-09T20:15:08.526Z,81.20
2018-12-09T20:17:37.364Z,81.50
2018-12-09T20:20:07.227Z,81.80
2018-12-09T20:22:37.143Z,82.20
2018-12-09T20:25:06.106Z,82.80
2018-12-09T20:27:34.907Z,83.10
2018-12-09T20:30:04.447Z,82.60
2018-12-09T20:32:35.346Z,82.80
2018-12-09T20:35:04.252Z,83.20
2018-12-09T20:37:33.148Z,82.80
2018-12-09T20:40:02.022Z,82.00
2018-12-09T20:42:31.023Z,81.90
2018-12-09T20:44:59.756Z,81.00
2018-12-09T20:47:28.533Z,80.30
2018-12-09T20:49:57.248Z,79.40
2018-12-09T20:52:25.952Z,79.80
2018-12-09T20:54:54.673Z,79.40
2018-12-09T20:57:23.582Z,79.00
2018-12-09T20:59:52.329Z,78.90
2018-12-09T21:02:21.040Z,78.60
2018-12-09T21:04:49.779Z,78.60
2018-12-09T21:07:18.616Z,78.60
2018-12-09T21:09:47.303Z,78.70
2018-12-09T21:17:17.921Z,79.10
2018-12-09T21:19:47.448Z,80.40
2018-12-09T21:22:16.272Z,80.90
2018-12-09T21:24:45.169Z,80.40
2018-12-09T21:27:13.852Z,80.40
2018-12-09T21:29:42.647Z,80.90
2018-12-09T21:32:11.384Z,80.80
2018-12-09T21:34:40.141Z,81.80
2018-12-09T21:37:08.932Z,82.30
2018-12-09T21:39:37.647Z,82.70
2018-12-09T21:42:06.373Z,82.00
2018-12-09T21:44:35.051Z,81.50
2018-12-09T21:47:03.841Z,81.80
2018-12-09T21:49:32.545Z,81.80
2018-12-09T21:52:01.273Z,80.80
2018-12-09T21:54:30.071Z,81.30
2018-12-09T21:56:58.933Z,81.00
2018-12-09T21:59:27.710Z,80.90
2018-12-09T22:01:56.446Z,80.30
2018-12-09T22:04:25.241Z,81.30
2018-12-09T22:06:54.130Z,80.70
2018-12-09T22:09:22.898Z,80.80
2018-12-09T22:11:51.733Z,80.60
2018-12-09T22:14:20.549Z,80.80
2018-12-09T22:16:49.332Z,80.70
2018-12-09T22:19:18.024Z,80.10
2018-12-09T22:21:47.955Z,80.10
2018-12-09T22:24:16.676Z,79.90
2018-12-09T22:26:45.576Z,79.80
2018-12-09T22:29:14.352Z,79.60
2018-12-09T22:31:43.131Z,79.60
2018-12-09T22:34:11.908Z,79.90
2018-12-09T22:36:40.658Z,79.70
2018-12-09T22:39:09.467Z,80.20
2018-12-09T22:41:38.229Z,79.30
2018-12-09T22:44:07.119Z,79.20
2018-12-09T22:46:35.892Z,79.30
2018-12-09T22:49:04.852Z,79.10
2018-12-09T22:51:33.595Z,79.20
2018-12-09T22:54:02.305Z,79.10
2018-12-09T22:56:31.092Z,79.10
2018-12-09T22:58:59.895Z,79.10
2018-12-09T23:01:28.809Z,79.50
2018-12-09T23:03:57.601Z,79.70
2018-12-09T23:06:26.569Z,80.10
2018-12-09T23:08:55.456Z,80.80
2018-12-09T23:11:24.308Z,81.20
2018-12-09T23:13:53.059Z,81.30
2018-12-09T23:16:21.817Z,81.20
2018-12-09T23:18:50.633Z,81.20
2018-12-09T23:21:19.318Z,81.10
2018-12-09T23:23:48.433Z,81.30
2018-12-09T23:26:18.138Z,81.40
2018-12-09T23:28:46.835Z,81.80
2018-12-09T23:31:15.688Z,82.30
2018-12-09T23:33:44.369Z,82.00
2018-12-09T23:36:13.392Z,81.40
2018-12-09T23:38:42.087Z,80.60
2018-12-09T23:41:10.768Z,81.00
2018-12-09T23:43:39.489Z,81.00
2018-12-09T23:46:08.169Z,80.50
2018-12-09T23:48:37.957Z,80.50
2018-12-09T23:51:06.857Z,79.60
2018-12-09T23:53:35.535Z,80.30
2018-12-09T23:56:04.356Z,80.10
2018-12-09T23:58:33.084Z,80.40
